sensor_id;sensor_type;location;lat;lon;timestamp;P1;durP1;ratioP1;P2;durP2;ratioP2
32535;SDS011;18974;50.838;4.636;2023-07-20T00:01:59;9.07;;;4.13;;
32535;SDS011;18974;50.838;4.636;2023-07-20T00:04:25;9.75;;;4.20;;
32535;SDS011;18974;50.838;4.636;2023-07-20T00:06:51;10.38;;;3.80;;
32535;SDS011;18974;50.838;4.636;2023-07-20T00:09:16;9.43;;;4.35;;
32535;SDS011;18974;50.838;4.636;2023-07-20T00:11:48;11.85;;;3.85;;
32535;SDS011;18974;50.838;4.636;2023-07-20T00:14:16;7.15;;;3.88;;
32535;SDS011;18974;50.838;4.636;2023-07-20T00:16:42;8.80;;;4.28;;
32535;SDS011;18974;50.838;4.636;2023-07-20T00:19:07;10.20;;;3.78;;
32535;SDS011;18974;50.838;4.636;2023-07-20T00:21:35;8.95;;;3.70;;
32535;SDS011;18974;50.838;4.636;2023-07-20T00:24:01;11.88;;;4.38;;
32535;SDS011;18974;50.838;4.636;2023-07-20T00:26:26;6.63;;;4.05;;
32535;SDS011;18974;50.838;4.636;2023-07-20T00:28:52;10.35;;;4.50;;
32535;SDS011;18974;50.838;4.636;2023-07-20T00:31:17;11.10;;;4.15;;
32535;SDS011;18974;50.838;4.636;2023-07-20T00:33:43;8.00;;;3.83;;
32535;SDS011;18974;50.838;4.636;2023-07-20T00:36:09;11.30;;;4.13;;
32535;SDS011;18974;50.838;4.636;2023-07-20T00:38:34;9.65;;;4.03;;
32535;SDS011;18974;50.838;4.636;2023-07-20T00:41:00;9.32;;;3.65;;
32535;SDS011;18974;50.838;4.636;2023-07-20T00:43:26;10.75;;;4.43;;
32535;SDS011;18974;50.838;4.636;2023-07-20T00:45:52;9.32;;;3.80;;
32535;SDS011;18974;50.838;4.636;2023-07-20T00:48:17;8.13;;;3.85;;
32535;SDS011;18974;50.838;4.636;2023-07-20T00:50:43;10.77;;;4.40;;
32535;SDS011;18974;50.838;4.636;2023-07-20T00:53:10;14.30;;;4.22;;
32535;SDS011;18974;50.838;4.636;2023-07-20T00:55:36;15.55;;;4.38;;
32535;SDS011;18974;50.838;4.636;2023-07-20T00:58:02;12.02;;;4.47;;
32535;SDS011;18974;50.838;4.636;2023-07-20T01:00:28;10.10;;;3.80;;
32535;SDS011;18974;50.838;4.636;2023-07-20T01:02:53;10.77;;;4.45;;
32535;SDS011;18974;50.838;4.636;2023-07-20T01:05:19;10.70;;;4.60;;
32535;SDS011;18974;50.838;4.636;2023-07-20T01:10:18;11.35;;;4.35;;
32535;SDS011;18974;50.838;4.636;2023-07-20T01:12:51;12.90;;;4.72;;
32535;SDS011;18974;50.838;4.636;2023-07-20T01:15:17;10.55;;;4.68;;
32535;SDS011;18974;50.838;4.636;2023-07-20T01:17:43;12.10;;;4.25;;
32535;SDS011;18974;50.838;4.636;2023-07-20T01:20:10;10.50;;;4.30;;
32535;SDS011;18974;50.838;4.636;2023-07-20T01:25:54;8.93;;;4.18;;
32535;SDS011;18974;50.838;4.636;2023-07-20T01:31:22;11.65;;;4.50;;
32535;SDS011;18974;50.838;4.636;2023-07-20T01:34:00;8.18;;;4.15;;
32535;SDS011;18974;50.838;4.636;2023-07-20T01:36:28;15.32;;;4.95;;
32535;SDS011;18974;50.838;4.636;2023-07-20T01:38:56;15.48;;;4.88;;
32535;SDS011;18974;50.838;4.636;2023-07-20T01:41:22;12.65;;;4.53;;
32535;SDS011;18974;50.838;4.636;2023-07-20T01:43:48;12.52;;;4.28;;
32535;SDS011;18974;50.838;4.636;2023-07-20T01:46:14;18.52;;;5.50;;
32535;SDS011;18974;50.838;4.636;2023-07-20T01:48:39;10.93;;;4.85;;
32535;SDS011;18974;50.838;4.636;2023-07-20T01:51:05;13.52;;;5.35;;
32535;SDS011;18974;50.838;4.636;2023-07-20T01:53:31;15.93;;;4.80;;
32535;SDS011;18974;50.838;4.636;2023-07-20T01:55:56;17.20;;;5.47;;
32535;SDS011;18974;50.838;4.636;2023-07-20T01:58:22;7.60;;;4.57;;
32535;SDS011;18974;50.838;4.636;2023-07-20T02:00:48;14.13;;;5.05;;
32535;SDS011;18974;50.838;4.636;2023-07-20T02:03:14;14.95;;;5.97;;
32535;SDS011;18974;50.838;4.636;2023-07-20T02:05:42;12.18;;;5.28;;
32535;SDS011;18974;50.838;4.636;2023-07-20T02:08:08;15.18;;;5.10;;
32535;SDS011;18974;50.838;4.636;2023-07-20T02:10:34;18.48;;;6.05;;
32535;SDS011;18974;50.838;4.636;2023-07-20T02:13:00;21.70;;;5.30;;
32535;SDS011;18974;50.838;4.636;2023-07-20T02:15:26;18.38;;;6.22;;
32535;SDS011;18974;50.838;4.636;2023-07-20T02:17:52;12.07;;;5.22;;
32535;SDS011;18974;50.838;4.636;2023-07-20T02:20:18;16.23;;;5.60;;
32535;SDS011;18974;50.838;4.636;2023-07-20T02:22:44;15.00;;;5.55;;
32535;SDS011;18974;50.838;4.636;2023-07-20T02:25:10;17.85;;;6.10;;
32535;SDS011;18974;50.838;4.636;2023-07-20T02:27:36;19.08;;;6.85;;
32535;SDS011;18974;50.838;4.636;2023-07-20T02:30:03;10.35;;;5.65;;
32535;SDS011;18974;50.838;4.636;2023-07-20T02:32:29;15.70;;;6.00;;
32535;SDS011;18974;50.838;4.636;2023-07-20T02:34:56;13.63;;;6.30;;
32535;SDS011;18974;50.838;4.636;2023-07-20T02:37:22;17.45;;;5.82;;
32535;SDS011;18974;50.838;4.636;2023-07-20T02:39:48;20.17;;;6.07;;
32535;SDS011;18974;50.838;4.636;2023-07-20T02:42:14;14.07;;;7.15;;
32535;SDS011;18974;50.838;4.636;2023-07-20T02:44:39;13.45;;;6.68;;
32535;SDS011;18974;50.838;4.636;2023-07-20T02:47:05;17.85;;;7.57;;
32535;SDS011;18974;50.838;4.636;2023-07-20T02:49:31;18.23;;;8.00;;
32535;SDS011;18974;50.838;4.636;2023-07-20T02:51:57;16.73;;;7.25;;
32535;SDS011;18974;50.838;4.636;2023-07-20T02:54:22;15.45;;;7.57;;
32535;SDS011;18974;50.838;4.636;2023-07-20T02:56:48;18.02;;;6.32;;
32535;SDS011;18974;50.838;4.636;2023-07-20T02:59:14;20.98;;;8.07;;
32535;SDS011;18974;50.838;4.636;2023-07-20T03:01:39;21.38;;;7.40;;
32535;SDS011;18974;50.838;4.636;2023-07-20T03:04:07;19.10;;;7.47;;
32535;SDS011;18974;50.838;4.636;2023-07-20T03:06:35;15.23;;;8.30;;
32535;SDS011;18974;50.838;4.636;2023-07-20T03:09:01;15.35;;;8.00;;
32535;SDS011;18974;50.838;4.636;2023-07-20T03:11:27;18.52;;;8.07;;
32535;SDS011;18974;50.838;4.636;2023-07-20T03:13:52;16.83;;;8.38;;
32535;SDS011;18974;50.838;4.636;2023-07-20T03:16:19;18.50;;;9.13;;
32535;SDS011;18974;50.838;4.636;2023-07-20T03:18:45;21.98;;;8.30;;
32535;SDS011;18974;50.838;4.636;2023-07-20T03:21:11;22.50;;;8.75;;
32535;SDS011;18974;50.838;4.636;2023-07-20T03:23:37;24.85;;;8.43;;
32535;SDS011;18974;50.838;4.636;2023-07-20T03:26:03;15.40;;;7.65;;
32535;SDS011;18974;50.838;4.636;2023-07-20T03:28:29;18.77;;;7.55;;
32535;SDS011;18974;50.838;4.636;2023-07-20T03:30:55;16.58;;;8.02;;
32535;SDS011;18974;50.838;4.636;2023-07-20T03:33:26;18.92;;;8.35;;
32535;SDS011;18974;50.838;4.636;2023-07-20T03:35:53;15.32;;;7.80;;
32535;SDS011;18974;50.838;4.636;2023-07-20T03:38:19;13.80;;;7.70;;
32535;SDS011;18974;50.838;4.636;2023-07-20T03:40:49;17.75;;;7.15;;
32535;SDS011;18974;50.838;4.636;2023-07-20T03:43:18;19.30;;;7.60;;
32535;SDS011;18974;50.838;4.636;2023-07-20T03:45:44;20.27;;;8.38;;
32535;SDS011;18974;50.838;4.636;2023-07-20T03:48:13;19.55;;;7.72;;
32535;SDS011;18974;50.838;4.636;2023-07-20T03:50:46;20.00;;;9.18;;
32535;SDS011;18974;50.838;4.636;2023-07-20T03:53:18;22.85;;;9.13;;
32535;SDS011;18974;50.838;4.636;2023-07-20T03:55:45;21.95;;;8.50;;
32535;SDS011;18974;50.838;4.636;2023-07-20T03:58:14;22.02;;;8.45;;
32535;SDS011;18974;50.838;4.636;2023-07-20T04:00:43;21.95;;;9.48;;
32535;SDS011;18974;50.838;4.636;2023-07-20T04:03:10;24.65;;;10.15;;
32535;SDS011;18974;50.838;4.636;2023-07-20T04:05:35;25.15;;;10.02;;
32535;SDS011;18974;50.838;4.636;2023-07-20T04:08:01;21.20;;;9.10;;
32535;SDS011;18974;50.838;4.636;2023-07-20T04:10:26;31.98;;;10.98;;
32535;SDS011;18974;50.838;4.636;2023-07-20T04:12:52;28.40;;;10.23;;
32535;SDS011;18974;50.838;4.636;2023-07-20T04:15:18;27.63;;;11.57;;
32535;SDS011;18974;50.838;4.636;2023-07-20T04:17:44;26.50;;;10.77;;
32535;SDS011;18974;50.838;4.636;2023-07-20T04:20:10;24.63;;;11.52;;
32535;SDS011;18974;50.838;4.636;2023-07-20T04:22:36;26.02;;;11.30;;
32535;SDS011;18974;50.838;4.636;2023-07-20T04:25:02;28.70;;;11.55;;
32535;SDS011;18974;50.838;4.636;2023-07-20T04:27:28;31.08;;;12.02;;
32535;SDS011;18974;50.838;4.636;2023-07-20T04:29:54;31.58;;;11.73;;
32535;SDS011;18974;50.838;4.636;2023-07-20T04:32:20;22.08;;;12.15;;
32535;SDS011;18974;50.838;4.636;2023-07-20T04:34:46;30.77;;;11.85;;
32535;SDS011;18974;50.838;4.636;2023-07-20T04:37:11;27.23;;;11.57;;
32535;SDS011;18974;50.838;4.636;2023-07-20T04:39:37;23.55;;;12.55;;
32535;SDS011;18974;50.838;4.636;2023-07-20T04:42:03;26.13;;;12.30;;
32535;SDS011;18974;50.838;4.636;2023-07-20T04:44:29;22.40;;;11.27;;
32535;SDS011;18974;50.838;4.636;2023-07-20T04:46:54;25.00;;;11.82;;
32535;SDS011;18974;50.838;4.636;2023-07-20T04:49:20;26.17;;;11.70;;
32535;SDS011;18974;50.838;4.636;2023-07-20T04:51:46;26.08;;;12.15;;
32535;SDS011;18974;50.838;4.636;2023-07-20T04:54:11;29.83;;;12.95;;
32535;SDS011;18974;50.838;4.636;2023-07-20T04:56:38;31.88;;;13.15;;
32535;SDS011;18974;50.838;4.636;2023-07-20T04:59:04;25.77;;;12.20;;
32535;SDS011;18974;50.838;4.636;2023-07-20T05:01:29;26.02;;;12.70;;
32535;SDS011;18974;50.838;4.636;2023-07-20T05:03:55;29.88;;;13.93;;
32535;SDS011;18974;50.838;4.636;2023-07-20T05:06:21;19.50;;;11.45;;
32535;SDS011;18974;50.838;4.636;2023-07-20T05:08:46;27.33;;;12.48;;
32535;SDS011;18974;50.838;4.636;2023-07-20T05:11:12;32.53;;;13.40;;
32535;SDS011;18974;50.838;4.636;2023-07-20T05:13:38;25.98;;;13.38;;
32535;SDS011;18974;50.838;4.636;2023-07-20T05:16:03;22.15;;;12.82;;
32535;SDS011;18974;50.838;4.636;2023-07-20T05:18:29;17.33;;;11.10;;
32535;SDS011;18974;50.838;4.636;2023-07-20T05:20:55;27.25;;;12.27;;
32535;SDS011;18974;50.838;4.636;2023-07-20T05:23:21;19.90;;;12.02;;
32535;SDS011;18974;50.838;4.636;2023-07-20T05:25:47;33.80;;;13.70;;
32535;SDS011;18974;50.838;4.636;2023-07-20T05:28:23;27.95;;;12.38;;
32535;SDS011;18974;50.838;4.636;2023-07-20T05:30:49;24.35;;;11.70;;
32535;SDS011;18974;50.838;4.636;2023-07-20T05:33:16;22.10;;;8.20;;
32535;SDS011;18974;50.838;4.636;2023-07-20T05:35:43;16.38;;;8.73;;
32535;SDS011;18974;50.838;4.636;2023-07-20T05:38:09;14.93;;;8.00;;
32535;SDS011;18974;50.838;4.636;2023-07-20T05:40:37;16.77;;;9.07;;
32535;SDS011;18974;50.838;4.636;2023-07-20T05:43:03;13.73;;;8.20;;
32535;SDS011;18974;50.838;4.636;2023-07-20T05:45:29;16.10;;;8.68;;
32535;SDS011;18974;50.838;4.636;2023-07-20T05:47:54;15.38;;;8.50;;
32535;SDS011;18974;50.838;4.636;2023-07-20T05:50:20;15.45;;;8.98;;
32535;SDS011;18974;50.838;4.636;2023-07-20T05:52:45;17.40;;;9.50;;
32535;SDS011;18974;50.838;4.636;2023-07-20T05:55:12;24.73;;;10.60;;
32535;SDS011;18974;50.838;4.636;2023-07-20T05:57:38;24.88;;;10.63;;
32535;SDS011;18974;50.838;4.636;2023-07-20T06:00:07;18.20;;;9.70;;
32535;SDS011;18974;50.838;4.636;2023-07-20T06:02:33;19.27;;;10.15;;
32535;SDS011;18974;50.838;4.636;2023-07-20T06:04:58;17.80;;;9.48;;
32535;SDS011;18974;50.838;4.636;2023-07-20T06:07:24;19.63;;;10.05;;
32535;SDS011;18974;50.838;4.636;2023-07-20T06:09:50;16.27;;;9.85;;
32535;SDS011;18974;50.838;4.636;2023-07-20T06:12:15;22.85;;;10.85;;
32535;SDS011;18974;50.838;4.636;2023-07-20T06:14:41;17.45;;;9.85;;
32535;SDS011;18974;50.838;4.636;2023-07-20T06:17:07;18.63;;;9.93;;
32535;SDS011;18974;50.838;4.636;2023-07-20T06:19:32;15.40;;;9.05;;
32535;SDS011;18974;50.838;4.636;2023-07-20T06:21:58;15.15;;;8.52;;
32535;SDS011;18974;50.838;4.636;2023-07-20T06:24:24;19.85;;;10.38;;
32535;SDS011;18974;50.838;4.636;2023-07-20T06:26:49;18.83;;;9.20;;
32535;SDS011;18974;50.838;4.636;2023-07-20T06:29:15;14.50;;;8.98;;
32535;SDS011;18974;50.838;4.636;2023-07-20T06:31:41;15.60;;;9.20;;
32535;SDS011;18974;50.838;4.636;2023-07-20T06:34:06;25.08;;;10.07;;
32535;SDS011;18974;50.838;4.636;2023-07-20T06:36:32;17.38;;;9.18;;
32535;SDS011;18974;50.838;4.636;2023-07-20T06:38:57;23.80;;;10.20;;
32535;SDS011;18974;50.838;4.636;2023-07-20T06:41:23;19.52;;;9.75;;
32535;SDS011;18974;50.838;4.636;2023-07-20T06:43:49;22.02;;;10.45;;
32535;SDS011;18974;50.838;4.636;2023-07-20T06:46:15;22.75;;;11.07;;
32535;SDS011;18974;50.838;4.636;2023-07-20T06:48:41;22.50;;;11.30;;
32535;SDS011;18974;50.838;4.636;2023-07-20T06:51:06;26.48;;;12.10;;
32535;SDS011;18974;50.838;4.636;2023-07-20T06:53:32;16.25;;;11.55;;
32535;SDS011;18974;50.838;4.636;2023-07-20T06:55:58;21.58;;;12.52;;
32535;SDS011;18974;50.838;4.636;2023-07-20T06:58:24;24.52;;;13.18;;
32535;SDS011;18974;50.838;4.636;2023-07-20T07:00:50;20.98;;;12.40;;
32535;SDS011;18974;50.838;4.636;2023-07-20T07:03:16;25.48;;;12.48;;
32535;SDS011;18974;50.838;4.636;2023-07-20T07:05:43;19.63;;;12.75;;
32535;SDS011;18974;50.838;4.636;2023-07-20T07:08:08;25.90;;;12.82;;
32535;SDS011;18974;50.838;4.636;2023-07-20T07:10:34;20.20;;;13.27;;
32535;SDS011;18974;50.838;4.636;2023-07-20T07:13:01;24.38;;;12.38;;
32535;SDS011;18974;50.838;4.636;2023-07-20T07:15:27;21.85;;;12.75;;
32535;SDS011;18974;50.838;4.636;2023-07-20T07:17:53;21.65;;;14.15;;
32535;SDS011;18974;50.838;4.636;2023-07-20T07:20:18;16.20;;;12.43;;
32535;SDS011;18974;50.838;4.636;2023-07-20T07:22:44;21.65;;;12.88;;
32535;SDS011;18974;50.838;4.636;2023-07-20T07:25:10;17.90;;;13.10;;
32535;SDS011;18974;50.838;4.636;2023-07-20T07:27:36;18.45;;;12.25;;
32535;SDS011;18974;50.838;4.636;2023-07-20T07:30:05;20.55;;;12.45;;
32535;SDS011;18974;50.838;4.636;2023-07-20T07:32:31;16.63;;;11.80;;
32535;SDS011;18974;50.838;4.636;2023-07-20T07:34:57;22.33;;;13.38;;
32535;SDS011;18974;50.838;4.636;2023-07-20T07:37:25;18.92;;;13.55;;
32535;SDS011;18974;50.838;4.636;2023-07-20T07:39:51;15.07;;;12.30;;
32535;SDS011;18974;50.838;4.636;2023-07-20T07:42:16;17.48;;;11.77;;
32535;SDS011;18974;50.838;4.636;2023-07-20T07:44:43;15.32;;;11.93;;
32535;SDS011;18974;50.838;4.636;2023-07-20T07:47:09;15.13;;;10.88;;
32535;SDS011;18974;50.838;4.636;2023-07-20T07:49:35;15.93;;;10.73;;
32535;SDS011;18974;50.838;4.636;2023-07-20T07:52:01;11.93;;;8.60;;
32535;SDS011;18974;50.838;4.636;2023-07-20T07:54:29;13.20;;;9.50;;
32535;SDS011;18974;50.838;4.636;2023-07-20T07:56:55;11.63;;;9.50;;
32535;SDS011;18974;50.838;4.636;2023-07-20T07:59:21;15.02;;;11.32;;
32535;SDS011;18974;50.838;4.636;2023-07-20T08:01:46;14.60;;;9.75;;
32535;SDS011;18974;50.838;4.636;2023-07-20T08:04:12;12.02;;;8.50;;
32535;SDS011;18974;50.838;4.636;2023-07-20T08:06:38;13.27;;;9.48;;
32535;SDS011;18974;50.838;4.636;2023-07-20T08:09:04;11.80;;;8.90;;
32535;SDS011;18974;50.838;4.636;2023-07-20T08:11:29;11.57;;;9.35;;
32535;SDS011;18974;50.838;4.636;2023-07-20T08:14:01;11.27;;;9.60;;
32535;SDS011;18974;50.838;4.636;2023-07-20T08:16:27;13.05;;;10.25;;
32535;SDS011;18974;50.838;4.636;2023-07-20T08:18:53;11.70;;;8.45;;
32535;SDS011;18974;50.838;4.636;2023-07-20T08:21:19;7.68;;;6.07;;
32535;SDS011;18974;50.838;4.636;2023-07-20T08:23:45;6.90;;;4.80;;
32535;SDS011;18974;50.838;4.636;2023-07-20T08:26:11;5.07;;;2.70;;
32535;SDS011;18974;50.838;4.636;2023-07-20T08:28:36;5.57;;;2.72;;
32535;SDS011;18974;50.838;4.636;2023-07-20T08:31:02;6.30;;;3.92;;
32535;SDS011;18974;50.838;4.636;2023-07-20T08:33:32;4.10;;;3.28;;
32535;SDS011;18974;50.838;4.636;2023-07-20T08:35:58;5.90;;;2.78;;
32535;SDS011;18974;50.838;4.636;2023-07-20T08:38:26;4.97;;;3.38;;
32535;SDS011;18974;50.838;4.636;2023-07-20T08:40:51;4.43;;;3.13;;
32535;SDS011;18974;50.838;4.636;2023-07-20T08:43:19;7.20;;;2.60;;
32535;SDS011;18974;50.838;4.636;2023-07-20T08:45:46;4.25;;;2.22;;
32535;SDS011;18974;50.838;4.636;2023-07-20T08:48:14;2.90;;;1.70;;
32535;SDS011;18974;50.838;4.636;2023-07-20T08:50:41;4.07;;;1.90;;
32535;SDS011;18974;50.838;4.636;2023-07-20T08:53:08;2.65;;;1.80;;
32535;SDS011;18974;50.838;4.636;2023-07-20T08:55:35;3.72;;;2.55;;
32535;SDS011;18974;50.838;4.636;2023-07-20T08:58:02;2.42;;;2.05;;
32535;SDS011;18974;50.838;4.636;2023-07-20T09:00:29;4.72;;;2.63;;
32535;SDS011;18974;50.838;4.636;2023-07-20T09:02:55;4.07;;;2.13;;
32535;SDS011;18974;50.838;4.636;2023-07-20T09:05:23;6.05;;;2.50;;
32535;SDS011;18974;50.838;4.636;2023-07-20T09:07:52;4.43;;;2.20;;
32535;SDS011;18974;50.838;4.636;2023-07-20T09:10:20;3.25;;;2.40;;
32535;SDS011;18974;50.838;4.636;2023-07-20T09:12:49;3.28;;;1.60;;
32535;SDS011;18974;50.838;4.636;2023-07-20T09:15:14;2.70;;;1.48;;
32535;SDS011;18974;50.838;4.636;2023-07-20T09:17:50;2.30;;;1.30;;
32535;SDS011;18974;50.838;4.636;2023-07-20T09:20:18;4.95;;;1.92;;
32535;SDS011;18974;50.838;4.636;2023-07-20T09:22:44;4.78;;;2.15;;
32535;SDS011;18974;50.838;4.636;2023-07-20T09:25:15;4.20;;;1.55;;
32535;SDS011;18974;50.838;4.636;2023-07-20T09:27:43;3.53;;;1.30;;
32535;SDS011;18974;50.838;4.636;2023-07-20T09:30:10;3.35;;;1.60;;
32535;SDS011;18974;50.838;4.636;2023-07-20T09:32:42;4.93;;;1.90;;
32535;SDS011;18974;50.838;4.636;2023-07-20T09:35:16;4.15;;;2.08;;
32535;SDS011;18974;50.838;4.636;2023-07-20T09:37:46;5.28;;;1.63;;
32535;SDS011;18974;50.838;4.636;2023-07-20T09:40:17;4.32;;;2.33;;
32535;SDS011;18974;50.838;4.636;2023-07-20T09:42:43;4.72;;;1.80;;
32535;SDS011;18974;50.838;4.636;2023-07-20T09:45:09;2.25;;;1.15;;
32535;SDS011;18974;50.838;4.636;2023-07-20T09:47:35;2.17;;;1.08;;
32535;SDS011;18974;50.838;4.636;2023-07-20T09:50:03;2.72;;;1.10;;
32535;SDS011;18974;50.838;4.636;2023-07-20T09:52:41;1.73;;;0.82;;
32535;SDS011;18974;50.838;4.636;2023-07-20T09:55:09;0.68;;;0.60;;
32535;SDS011;18974;50.838;4.636;2023-07-20T09:57:36;1.95;;;0.90;;
32535;SDS011;18974;50.838;4.636;2023-07-20T10:00:05;1.27;;;0.80;;
32535;SDS011;18974;50.838;4.636;2023-07-20T10:02:43;2.28;;;0.82;;
32535;SDS011;18974;50.838;4.636;2023-07-20T10:05:13;4.55;;;1.40;;
32535;SDS011;18974;50.838;4.636;2023-07-20T10:07:43;2.47;;;1.30;;
32535;SDS011;18974;50.838;4.636;2023-07-20T10:10:12;1.67;;;1.10;;
32535;SDS011;18974;50.838;4.636;2023-07-20T10:12:39;2.83;;;1.20;;
32535;SDS011;18974;50.838;4.636;2023-07-20T10:15:11;5.20;;;1.50;;
32535;SDS011;18974;50.838;4.636;2023-07-20T10:17:39;1.77;;;1.50;;
32535;SDS011;18974;50.838;4.636;2023-07-20T10:20:14;2.97;;;1.80;;
32535;SDS011;18974;50.838;4.636;2023-07-20T10:22:44;5.15;;;1.50;;
32535;SDS011;18974;50.838;4.636;2023-07-20T10:25:14;3.30;;;1.70;;
32535;SDS011;18974;50.838;4.636;2023-07-20T10:27:41;3.00;;;1.67;;
32535;SDS011;18974;50.838;4.636;2023-07-20T10:30:08;4.22;;;1.88;;
32535;SDS011;18974;50.838;4.636;2023-07-20T10:32:34;2.95;;;1.70;;
32535;SDS011;18974;50.838;4.636;2023-07-20T10:35:00;4.25;;;1.90;;
32535;SDS011;18974;50.838;4.636;2023-07-20T10:40:27;3.58;;;2.05;;
32535;SDS011;18974;50.838;4.636;2023-07-20T10:42:58;3.05;;;1.95;;
32535;SDS011;18974;50.838;4.636;2023-07-20T10:45:34;2.40;;;1.95;;
32535;SDS011;18974;50.838;4.636;2023-07-20T10:48:04;5.40;;;1.95;;
32535;SDS011;18974;50.838;4.636;2023-07-20T10:50:31;4.55;;;2.05;;
32535;SDS011;18974;50.838;4.636;2023-07-20T10:53:09;3.35;;;2.42;;
32535;SDS011;18974;50.838;4.636;2023-07-20T10:55:44;3.67;;;2.00;;
32535;SDS011;18974;50.838;4.636;2023-07-20T10:58:14;3.80;;;1.83;;
32535;SDS011;18974;50.838;4.636;2023-07-20T11:03:28;3.83;;;2.00;;
32535;SDS011;18974;50.838;4.636;2023-07-20T11:05:54;5.68;;;2.00;;
32535;SDS011;18974;50.838;4.636;2023-07-20T11:08:40;3.92;;;1.40;;
32535;SDS011;18974;50.838;4.636;2023-07-20T11:11:26;6.90;;;1.85;;
32535;SDS011;18974;50.838;4.636;2023-07-20T11:16:19;4.20;;;1.60;;
32535;SDS011;18974;50.838;4.636;2023-07-20T11:18:58;2.47;;;1.80;;
32535;SDS011;18974;50.838;4.636;2023-07-20T11:21:24;4.20;;;1.63;;
32535;SDS011;18974;50.838;4.636;2023-07-20T11:23:51;2.40;;;1.10;;
32535;SDS011;18974;50.838;4.636;2023-07-20T11:26:17;2.00;;;1.10;;
32535;SDS011;18974;50.838;4.636;2023-07-20T11:28:48;2.67;;;1.27;;
32535;SDS011;18974;50.838;4.636;2023-07-20T11:31:17;2.17;;;1.20;;
32535;SDS011;18974;50.838;4.636;2023-07-20T11:33:43;3.05;;;1.08;;
32535;SDS011;18974;50.838;4.636;2023-07-20T11:36:09;3.42;;;1.10;;
32535;SDS011;18974;50.838;4.636;2023-07-20T11:38:35;2.88;;;0.95;;
32535;SDS011;18974;50.838;4.636;2023-07-20T11:41:04;2.03;;;0.93;;
32535;SDS011;18974;50.838;4.636;2023-07-20T11:43:30;3.90;;;1.20;;
32535;SDS011;18974;50.838;4.636;2023-07-20T11:45:56;2.13;;;1.10;;
32535;SDS011;18974;50.838;4.636;2023-07-20T11:48:22;1.65;;;1.08;;
32535;SDS011;18974;50.838;4.636;2023-07-20T11:50:48;2.38;;;1.20;;
32535;SDS011;18974;50.838;4.636;2023-07-20T11:53:14;2.28;;;1.27;;
32535;SDS011;18974;50.838;4.636;2023-07-20T11:55:41;5.97;;;1.30;;
32535;SDS011;18974;50.838;4.636;2023-07-20T11:58:07;3.10;;;1.13;;
32535;SDS011;18974;50.838;4.636;2023-07-20T12:00:34;1.92;;;1.25;;
32535;SDS011;18974;50.838;4.636;2023-07-20T12:03:05;2.30;;;1.10;;
32535;SDS011;18974;50.838;4.636;2023-07-20T12:05:35;1.65;;;1.30;;
32535;SDS011;18974;50.838;4.636;2023-07-20T12:08:02;4.40;;;1.10;;
32535;SDS011;18974;50.838;4.636;2023-07-20T12:10:28;2.65;;;1.00;;
32535;SDS011;18974;50.838;4.636;2023-07-20T12:12:54;1.40;;;0.90;;
32535;SDS011;18974;50.838;4.636;2023-07-20T12:15:28;1.50;;;1.08;;
32535;SDS011;18974;50.838;4.636;2023-07-20T12:18:01;2.53;;;1.30;;
32535;SDS011;18974;50.838;4.636;2023-07-20T12:20:32;2.15;;;1.13;;
32535;SDS011;18974;50.838;4.636;2023-07-20T12:23:03;1.60;;;1.05;;
32535;SDS011;18974;50.838;4.636;2023-07-20T12:28:10;1.88;;;1.10;;
32535;SDS011;18974;50.838;4.636;2023-07-20T12:30:37;2.78;;;1.02;;
32535;SDS011;18974;50.838;4.636;2023-07-20T12:33:04;2.63;;;1.20;;
32535;SDS011;18974;50.838;4.636;2023-07-20T12:35:30;2.20;;;1.05;;
32535;SDS011;18974;50.838;4.636;2023-07-20T12:37:56;3.22;;;1.33;;
32535;SDS011;18974;50.838;4.636;2023-07-20T12:40:22;1.75;;;1.10;;
32535;SDS011;18974;50.838;4.636;2023-07-20T12:42:48;1.25;;;1.10;;
32535;SDS011;18974;50.838;4.636;2023-07-20T12:45:14;1.48;;;1.10;;
32535;SDS011;18974;50.838;4.636;2023-07-20T12:47:40;3.90;;;1.02;;
32535;SDS011;18974;50.838;4.636;2023-07-20T12:50:07;3.95;;;1.02;;
32535;SDS011;18974;50.838;4.636;2023-07-20T12:52:36;1.65;;;1.08;;
32535;SDS011;18974;50.838;4.636;2023-07-20T12:55:04;3.13;;;1.05;;
32535;SDS011;18974;50.838;4.636;2023-07-20T12:57:36;2.50;;;1.02;;
32535;SDS011;18974;50.838;4.636;2023-07-20T13:00:03;4.72;;;1.02;;
32535;SDS011;18974;50.838;4.636;2023-07-20T13:02:35;3.05;;;1.10;;
32535;SDS011;18974;50.838;4.636;2023-07-20T13:05:01;2.53;;;1.30;;
32535;SDS011;18974;50.838;4.636;2023-07-20T13:07:35;2.50;;;1.17;;
32535;SDS011;18974;50.838;4.636;2023-07-20T13:10:02;5.57;;;1.10;;
32535;SDS011;18974;50.838;4.636;2023-07-20T13:12:29;2.58;;;1.30;;
32535;SDS011;18974;50.838;4.636;2023-07-20T13:14:56;1.85;;;1.30;;
32535;SDS011;18974;50.838;4.636;2023-07-20T13:17:25;2.25;;;0.98;;
32535;SDS011;18974;50.838;4.636;2023-07-20T13:19:52;2.33;;;1.30;;
32535;SDS011;18974;50.838;4.636;2023-07-20T13:22:18;2.55;;;1.40;;
32535;SDS011;18974;50.838;4.636;2023-07-20T13:24:44;3.78;;;1.02;;
32535;SDS011;18974;50.838;4.636;2023-07-20T13:27:14;4.40;;;1.05;;
32535;SDS011;18974;50.838;4.636;2023-07-20T13:29:40;2.80;;;1.20;;
32535;SDS011;18974;50.838;4.636;2023-07-20T13:32:07;1.65;;;1.17;;
32535;SDS011;18974;50.838;4.636;2023-07-20T13:34:32;4.30;;;1.33;;
32535;SDS011;18974;50.838;4.636;2023-07-20T13:36:58;3.28;;;1.40;;
32535;SDS011;18974;50.838;4.636;2023-07-20T13:39:24;2.83;;;1.52;;
32535;SDS011;18974;50.838;4.636;2023-07-20T13:41:52;1.92;;;1.20;;
32535;SDS011;18974;50.838;4.636;2023-07-20T13:44:18;1.65;;;1.30;;
32535;SDS011;18974;50.838;4.636;2023-07-20T13:46:45;2.53;;;1.27;;
32535;SDS011;18974;50.838;4.636;2023-07-20T13:49:11;1.75;;;1.27;;
32535;SDS011;18974;50.838;4.636;2023-07-20T13:51:37;2.63;;;1.40;;
32535;SDS011;18974;50.838;4.636;2023-07-20T13:54:03;5.43;;;1.65;;
32535;SDS011;18974;50.838;4.636;2023-07-20T13:56:29;2.05;;;1.30;;
32535;SDS011;18974;50.838;4.636;2023-07-20T13:58:54;2.88;;;1.77;;
32535;SDS011;18974;50.838;4.636;2023-07-20T14:01:20;1.65;;;1.55;;
32535;SDS011;18974;50.838;4.636;2023-07-20T14:03:48;4.03;;;1.40;;
32535;SDS011;18974;50.838;4.636;2023-07-20T14:06:14;3.28;;;1.45;;
32535;SDS011;18974;50.838;4.636;2023-07-20T14:08:40;1.90;;;1.65;;
32535;SDS011;18974;50.838;4.636;2023-07-20T14:11:06;2.17;;;1.65;;
32535;SDS011;18974;50.838;4.636;2023-07-20T14:13:31;2.67;;;1.42;;
32535;SDS011;18974;50.838;4.636;2023-07-20T14:15:57;3.10;;;1.73;;
32535;SDS011;18974;50.838;4.636;2023-07-20T14:18:23;2.42;;;1.30;;
32535;SDS011;18974;50.838;4.636;2023-07-20T14:20:48;2.28;;;1.50;;
32535;SDS011;18974;50.838;4.636;2023-07-20T14:23:14;3.88;;;1.35;;
32535;SDS011;18974;50.838;4.636;2023-07-20T14:25:40;2.35;;;1.30;;
32535;SDS011;18974;50.838;4.636;2023-07-20T14:28:07;3.30;;;1.33;;
32535;SDS011;18974;50.838;4.636;2023-07-20T14:30:33;3.40;;;1.20;;
32535;SDS011;18974;50.838;4.636;2023-07-20T14:32:58;2.58;;;1.20;;
32535;SDS011;18974;50.838;4.636;2023-07-20T14:35:24;3.13;;;1.02;;
32535;SDS011;18974;50.838;4.636;2023-07-20T14:37:51;1.75;;;1.25;;
32535;SDS011;18974;50.838;4.636;2023-07-20T14:40:16;2.45;;;1.27;;
32535;SDS011;18974;50.838;4.636;2023-07-20T14:42:43;1.70;;;1.00;;
32535;SDS011;18974;50.838;4.636;2023-07-20T14:45:08;1.85;;;1.10;;
32535;SDS011;18974;50.838;4.636;2023-07-20T14:47:34;2.88;;;1.20;;
32535;SDS011;18974;50.838;4.636;2023-07-20T14:50:03;2.38;;;1.15;;
32535;SDS011;18974;50.838;4.636;2023-07-20T14:52:29;3.25;;;1.20;;
32535;SDS011;18974;50.838;4.636;2023-07-20T14:54:55;1.80;;;1.17;;
32535;SDS011;18974;50.838;4.636;2023-07-20T14:57:21;1.25;;;1.08;;